In Rescue
 
Open Full Screen Window  High Contrast Mode
Wind Gusting 15 knots
08
August 09, 2020 6:44 PM EDT
Weather Information
Wind Direction
  210 °
Wind Speed
  08 kt (9 mph)
Wind Gust
  15 kt (17 mph)
Altimeter
29.94 in
Visibility
10 SM
Temperature
27° C
81° F
Dewpoint
20° C
68° F
Humidity
66%
Sky Condition
Clear
VFR

METAR KFKS 092244Z AUTO 21008G15KT 10SM CLR 27/20 A2994 RMK AO2 T02670196

FAA Disclaimer: The data displayed is for advisory purposes only and is not to be used for flight planning or operations.